createdAt,value
2018-09-30T00:02:27.440Z,6.30
2018-09-30T00:04:55.735Z,5.37
2018-09-30T00:07:24.029Z,5.33
2018-09-30T00:09:52.280Z,5.15
2018-09-30T00:12:20.551Z,5.65
2018-09-30T00:14:48.858Z,4.60
2018-09-30T00:17:17.134Z,5.28
2018-09-30T00:19:45.401Z,3.95
2018-09-30T00:22:13.661Z,4.70
2018-09-30T00:24:47.220Z,5.00
2018-09-30T00:27:18.453Z,4.47
2018-09-30T00:29:46.776Z,4.30
2018-09-30T00:32:15.147Z,4.37
2018-09-30T00:34:44.417Z,4.03
2018-09-30T00:37:12.710Z,4.72
2018-09-30T00:39:41.003Z,5.05
2018-09-30T00:42:09.297Z,4.53
2018-09-30T00:44:37.535Z,4.17
2018-09-30T00:47:05.815Z,4.08
2018-09-30T00:49:34.082Z,4.55
2018-09-30T00:52:02.377Z,4.20
2018-09-30T00:54:30.680Z,4.47
2018-09-30T00:56:58.968Z,4.17
2018-09-30T00:59:27.223Z,4.15
2018-09-30T01:01:55.569Z,4.30
2018-09-30T01:04:23.846Z,4.00
2018-09-30T01:06:52.161Z,4.08
2018-09-30T01:09:20.409Z,3.98
2018-09-30T01:11:48.735Z,4.80
2018-09-30T01:14:17.016Z,5.05
2018-09-30T01:16:45.249Z,4.75
2018-09-30T01:19:13.562Z,5.35
2018-09-30T01:21:41.805Z,5.00
2018-09-30T01:24:10.096Z,5.08
2018-09-30T01:26:38.318Z,5.20
2018-09-30T01:29:06.595Z,5.12
2018-09-30T01:31:35.628Z,5.42
2018-09-30T01:34:03.959Z,5.87
2018-09-30T01:36:32.214Z,5.45
2018-09-30T01:39:00.508Z,5.95
2018-09-30T01:41:28.763Z,5.47
2018-09-30T01:43:57.222Z,5.58
2018-09-30T01:46:25.468Z,5.75
2018-09-30T01:48:53.756Z,6.03
2018-09-30T01:51:22.052Z,5.37
2018-09-30T01:53:50.280Z,5.35
2018-09-30T01:56:18.574Z,5.45
2018-09-30T01:58:46.844Z,5.65
2018-09-30T02:03:49.982Z,5.67
2018-09-30T02:06:18.229Z,6.17
2018-09-30T02:08:46.494Z,6.20
2018-09-30T02:11:14.759Z,5.53
2018-09-30T02:13:43.042Z,5.55
2018-09-30T02:16:11.310Z,5.70
2018-09-30T02:18:39.615Z,7.33
2018-09-30T02:21:07.938Z,5.90
2018-09-30T02:23:36.195Z,5.00
2018-09-30T02:26:04.432Z,5.95
2018-09-30T02:28:32.696Z,5.15
2018-09-30T02:31:00.983Z,6.33
2018-09-30T02:33:29.283Z,4.65
2018-09-30T02:35:57.580Z,4.97
2018-09-30T02:38:25.884Z,5.28
2018-09-30T02:40:54.206Z,5.12
2018-09-30T02:43:22.448Z,5.20
2018-09-30T02:45:52.521Z,5.05
2018-09-30T02:48:20.941Z,5.42
2018-09-30T02:50:49.241Z,5.15
2018-09-30T02:53:17.539Z,6.15
2018-09-30T02:55:45.845Z,5.55
2018-09-30T02:58:14.111Z,5.83
2018-09-30T03:00:42.372Z,5.60
2018-09-30T03:03:10.721Z,6.15
2018-09-30T03:05:39.015Z,6.00
2018-09-30T03:08:12.785Z,5.47
2018-09-30T03:10:41.020Z,4.83
2018-09-30T03:13:09.318Z,4.60
2018-09-30T03:15:37.609Z,4.78
2018-09-30T03:18:06.156Z,5.35
2018-09-30T03:20:34.458Z,4.65
2018-09-30T03:23:02.741Z,4.30
2018-09-30T03:25:31.008Z,4.87
2018-09-30T03:27:59.323Z,4.47
2018-09-30T03:30:27.557Z,4.80
2018-09-30T03:32:55.866Z,4.20
2018-09-30T03:35:24.136Z,4.30
2018-09-30T03:37:52.380Z,5.20
2018-09-30T03:40:20.677Z,5.40
2018-09-30T03:42:49.448Z,5.00
2018-09-30T03:45:17.796Z,5.30
2018-09-30T03:47:46.108Z,5.33
2018-09-30T03:50:14.392Z,5.70
2018-09-30T03:52:42.685Z,6.40
2018-09-30T03:55:10.932Z,5.30
2018-09-30T03:57:39.243Z,4.60
2018-09-30T04:00:07.561Z,4.80
2018-09-30T04:02:35.814Z,3.87
2018-09-30T04:05:04.338Z,4.72
2018-09-30T04:07:32.661Z,4.80
2018-09-30T04:10:01.053Z,4.08
2018-09-30T04:12:29.397Z,4.80
2018-09-30T04:14:57.666Z,5.33
2018-09-30T04:17:26.024Z,4.90
2018-09-30T04:19:54.341Z,4.92
2018-09-30T04:22:22.644Z,4.08
2018-09-30T04:24:57.637Z,4.80
2018-09-30T04:27:26.147Z,5.30
2018-09-30T04:29:54.407Z,4.47
2018-09-30T04:32:22.739Z,4.70
2018-09-30T04:34:51.037Z,5.05
2018-09-30T04:37:19.373Z,4.83
2018-09-30T04:39:47.648Z,4.90
2018-09-30T04:42:15.938Z,6.03
2018-09-30T04:44:44.273Z,4.87
2018-09-30T04:47:12.643Z,5.30
2018-09-30T04:49:40.926Z,4.70
2018-09-30T04:52:09.193Z,5.47
2018-09-30T04:54:37.478Z,5.67
2018-09-30T04:57:05.732Z,5.72
2018-09-30T04:59:34.027Z,4.33
2018-09-30T05:02:02.373Z,5.05
2018-09-30T05:04:30.707Z,4.62
2018-09-30T05:06:58.995Z,5.85
2018-09-30T05:09:27.272Z,5.83
2018-09-30T05:11:55.603Z,4.75
2018-09-30T05:14:23.903Z,4.83
2018-09-30T05:16:52.188Z,5.45
2018-09-30T05:19:20.486Z,4.55
2018-09-30T05:21:48.986Z,5.17
2018-09-30T05:24:17.377Z,5.17
2018-09-30T05:26:45.685Z,7.45
2018-09-30T05:29:14.654Z,5.30
2018-09-30T05:31:43.552Z,5.37
2018-09-30T05:34:12.341Z,5.33
2018-09-30T05:36:40.976Z,6.12
2018-09-30T05:39:11.557Z,6.10
2018-09-30T05:41:41.063Z,5.40
2018-09-30T05:44:11.227Z,6.65
2018-09-30T05:46:40.592Z,5.50
2018-09-30T05:49:10.227Z,5.80
2018-09-30T05:51:39.474Z,4.65
2018-09-30T05:54:08.269Z,3.47
2018-09-30T05:56:37.382Z,5.72
2018-09-30T05:59:06.585Z,4.80
2018-09-30T06:01:35.781Z,5.50
2018-09-30T06:04:05.038Z,4.70
2018-09-30T06:06:34.124Z,4.67
2018-09-30T06:09:03.473Z,4.62
2018-09-30T06:11:32.675Z,5.10
2018-09-30T06:14:01.795Z,4.47
2018-09-30T06:16:30.660Z,5.35
2018-09-30T06:18:59.840Z,5.87
2018-09-30T06:21:29.372Z,17.60
2018-09-30T06:23:58.871Z,18.12
2018-09-30T06:26:28.177Z,10.00
2018-09-30T06:28:57.155Z,6.20
2018-09-30T06:31:27.211Z,5.70
2018-09-30T06:36:49.083Z,4.67
2018-09-30T06:39:18.493Z,4.90
2018-09-30T06:41:47.030Z,5.35
2018-09-30T06:44:15.341Z,4.20
2018-09-30T06:46:43.818Z,4.10
2018-09-30T06:49:12.307Z,4.15
2018-09-30T06:51:40.680Z,5.15
2018-09-30T06:54:08.993Z,4.22
2018-09-30T06:56:37.352Z,4.70
2018-09-30T06:59:05.740Z,3.98
2018-09-30T07:01:34.090Z,4.85
2018-09-30T07:04:02.456Z,4.47
2018-09-30T07:09:07.060Z,5.10
2018-09-30T07:11:35.789Z,4.50
2018-09-30T07:14:04.055Z,5.30
2018-09-30T07:16:32.622Z,5.58
2018-09-30T07:19:00.949Z,9.08
2018-09-30T07:21:29.221Z,5.67
2018-09-30T07:23:57.520Z,5.65
2018-09-30T07:26:25.810Z,5.55
2018-09-30T07:28:54.408Z,6.75
2018-09-30T07:31:22.725Z,4.85
2018-09-30T07:33:51.149Z,4.97
2018-09-30T07:36:19.371Z,5.42
2018-09-30T07:38:47.614Z,4.78
2018-09-30T07:41:15.892Z,5.15
2018-09-30T07:43:44.156Z,4.95
2018-09-30T07:46:12.485Z,5.42
2018-09-30T07:48:40.819Z,5.70
2018-09-30T07:51:09.113Z,5.40
2018-09-30T07:53:37.434Z,4.92
2018-09-30T07:56:05.678Z,5.85
2018-09-30T07:58:33.937Z,5.30
2018-09-30T08:01:02.196Z,5.35
2018-09-30T08:03:30.581Z,5.53
2018-09-30T08:05:58.912Z,6.30
2018-09-30T08:08:27.249Z,5.65
2018-09-30T08:10:55.597Z,5.10
2018-09-30T08:13:23.884Z,5.60
2018-09-30T08:15:52.203Z,5.80
2018-09-30T08:18:20.496Z,6.65
2018-09-30T08:20:48.798Z,6.03
2018-09-30T08:23:17.116Z,6.12
2018-09-30T08:25:45.415Z,7.22
2018-09-30T08:28:14.903Z,6.58
2018-09-30T08:30:43.374Z,5.83
2018-09-30T08:33:11.568Z,6.45
2018-09-30T08:35:39.833Z,7.28
2018-09-30T08:38:13.539Z,7.28
2018-09-30T08:40:47.212Z,6.42
2018-09-30T08:43:19.572Z,5.90
2018-09-30T08:45:47.917Z,6.12
2018-09-30T08:48:16.262Z,5.93
2018-09-30T08:50:44.624Z,5.35
2018-09-30T08:53:12.873Z,5.97
2018-09-30T08:55:41.197Z,5.45
2018-09-30T08:58:09.455Z,5.33
2018-09-30T09:00:37.774Z,4.83
2018-09-30T09:03:06.083Z,4.90
2018-09-30T09:05:34.306Z,6.90
2018-09-30T09:08:02.725Z,4.50
2018-09-30T09:10:31.025Z,5.60
2018-09-30T09:12:59.677Z,4.67
2018-09-30T09:15:28.038Z,4.23
2018-09-30T09:17:56.350Z,4.33
2018-09-30T09:20:24.601Z,4.83
2018-09-30T09:22:53.057Z,4.10
2018-09-30T09:25:21.392Z,4.00
2018-09-30T09:27:49.706Z,4.43
2018-09-30T09:30:18.060Z,3.50
2018-09-30T09:32:46.343Z,3.90
2018-09-30T09:35:14.762Z,4.90
2018-09-30T09:37:42.965Z,4.67
2018-09-30T09:40:11.560Z,5.03
2018-09-30T09:42:39.932Z,5.50
2018-09-30T09:45:08.457Z,4.10
2018-09-30T09:47:36.698Z,4.50
2018-09-30T09:50:05.073Z,5.33
2018-09-30T09:52:33.454Z,4.30
2018-09-30T09:55:01.757Z,4.40
2018-09-30T09:57:30.003Z,4.60
2018-09-30T09:59:58.269Z,5.10
2018-09-30T10:02:28.539Z,4.90
2018-09-30T10:04:56.849Z,4.00
2018-09-30T10:07:25.121Z,4.57
2018-09-30T10:09:53.423Z,4.50
2018-09-30T10:12:21.716Z,5.03
2018-09-30T10:14:49.992Z,4.73
2018-09-30T10:17:18.305Z,4.00
2018-09-30T10:19:46.644Z,4.33
2018-09-30T10:22:14.919Z,5.03
2018-09-30T10:24:43.335Z,3.73
2018-09-30T10:27:11.711Z,4.00
2018-09-30T10:29:39.972Z,4.70
2018-09-30T10:32:08.279Z,4.03
2018-09-30T10:34:36.614Z,4.63
2018-09-30T10:37:04.929Z,3.80
2018-09-30T10:39:33.818Z,3.60
2018-09-30T10:42:02.622Z,3.60
2018-09-30T10:44:30.939Z,4.50
2018-09-30T10:46:59.232Z,3.23
2018-09-30T10:49:27.678Z,3.90
2018-09-30T10:51:56.000Z,4.07
2018-09-30T10:54:24.336Z,3.97
2018-09-30T10:56:52.710Z,3.60
2018-09-30T10:59:20.960Z,3.50
2018-09-30T11:01:49.323Z,3.60
2018-09-30T11:04:17.682Z,3.80
2018-09-30T11:06:52.611Z,3.00
2018-09-30T11:09:27.715Z,3.33
2018-09-30T11:12:02.679Z,3.50
2018-09-30T11:14:30.953Z,2.80
2018-09-30T11:16:59.322Z,3.30
2018-09-30T11:19:27.847Z,3.20
2018-09-30T11:21:57.180Z,2.87
2018-09-30T11:24:26.125Z,2.97
2018-09-30T11:26:54.439Z,3.33
2018-09-30T11:29:22.920Z,3.63
2018-09-30T11:31:51.382Z,3.70
2018-09-30T11:34:19.595Z,3.30
2018-09-30T11:37:00.889Z,3.20
2018-09-30T11:39:29.437Z,2.93
2018-09-30T11:41:57.773Z,4.23
2018-09-30T11:44:26.894Z,2.80
2018-09-30T11:46:55.197Z,2.97
2018-09-30T11:49:23.581Z,3.47
2018-09-30T11:51:51.930Z,3.63
2018-09-30T11:54:21.053Z,3.70
2018-09-30T11:56:49.373Z,4.10
2018-09-30T11:59:24.360Z,3.67
2018-09-30T12:01:52.804Z,3.83
2018-09-30T12:04:21.098Z,3.90
2018-09-30T12:06:49.441Z,3.27
2018-09-30T12:09:17.756Z,4.00
2018-09-30T12:11:46.082Z,4.13
2018-09-30T12:14:14.359Z,3.83
2018-09-30T12:16:42.682Z,4.10
2018-09-30T12:19:11.069Z,4.20
2018-09-30T12:21:39.408Z,4.40
2018-09-30T12:24:08.105Z,2.93
2018-09-30T12:26:36.619Z,4.10
2018-09-30T12:29:04.924Z,3.40
2018-09-30T12:31:33.338Z,3.90
2018-09-30T12:34:01.796Z,3.87
2018-09-30T12:36:30.123Z,3.97
2018-09-30T12:38:58.442Z,3.10
2018-09-30T12:41:26.917Z,2.90
2018-09-30T12:43:55.546Z,3.70
2018-09-30T12:46:23.944Z,3.47
2018-09-30T12:48:52.352Z,3.90
2018-09-30T12:51:20.928Z,2.90
2018-09-30T12:53:49.258Z,3.87
2018-09-30T12:56:19.283Z,3.83
2018-09-30T12:58:47.562Z,4.63
2018-09-30T13:01:16.022Z,4.90
2018-09-30T13:03:44.633Z,3.60
2018-09-30T13:06:14.065Z,4.60
2018-09-30T13:08:43.097Z,3.10
2018-09-30T13:11:11.432Z,3.07
2018-09-30T13:13:40.526Z,3.70
2018-09-30T13:16:08.901Z,4.27
2018-09-30T13:18:37.449Z,3.90
2018-09-30T13:21:06.176Z,4.50
2018-09-30T13:23:34.544Z,3.50
2018-09-30T13:26:02.937Z,2.73
2018-09-30T13:28:31.433Z,3.00
2018-09-30T13:31:00.157Z,3.33
2018-09-30T13:33:28.693Z,4.90
2018-09-30T13:35:57.444Z,4.07
2018-09-30T13:38:26.044Z,4.30
2018-09-30T13:40:54.509Z,4.13
2018-09-30T13:43:29.496Z,3.53
2018-09-30T13:45:58.069Z,3.40
2018-09-30T13:48:26.302Z,3.90
2018-09-30T13:50:54.992Z,4.10
2018-09-30T13:53:23.293Z,4.40
2018-09-30T13:55:51.601Z,3.60
2018-09-30T13:58:19.926Z,3.50
2018-09-30T14:00:48.328Z,4.20
2018-09-30T14:03:16.781Z,4.23
2018-09-30T14:05:45.189Z,3.23
2018-09-30T14:08:13.517Z,3.37
2018-09-30T14:10:41.793Z,3.53
2018-09-30T14:13:10.055Z,3.20
2018-09-30T14:15:38.513Z,3.30
2018-09-30T14:18:06.865Z,2.93
2018-09-30T14:20:35.163Z,2.40
2018-09-30T14:23:03.518Z,4.03
2018-09-30T14:25:31.904Z,3.17
2018-09-30T14:28:00.185Z,3.67
2018-09-30T14:30:28.640Z,3.90
2018-09-30T14:32:57.400Z,3.37
2018-09-30T14:35:25.829Z,3.53
2018-09-30T14:37:54.117Z,3.23
2018-09-30T14:40:22.387Z,3.07
2018-09-30T14:42:50.773Z,4.30
2018-09-30T14:45:19.444Z,3.60
2018-09-30T14:47:48.674Z,3.50
2018-09-30T14:50:16.948Z,3.93
2018-09-30T14:52:45.377Z,2.93
2018-09-30T14:55:13.711Z,3.20
2018-09-30T14:57:42.047Z,3.70
2018-09-30T15:00:10.438Z,3.57
2018-09-30T15:02:38.692Z,4.30
2018-09-30T15:05:07.305Z,3.83
2018-09-30T15:07:35.847Z,3.67
2018-09-30T15:10:04.179Z,3.67
2018-09-30T15:12:35.413Z,3.70
2018-09-30T15:15:04.669Z,3.90
2018-09-30T15:17:33.138Z,4.77
2018-09-30T15:20:01.618Z,4.10
2018-09-30T15:22:30.175Z,4.00
2018-09-30T15:24:58.727Z,4.40
2018-09-30T15:27:27.006Z,3.70
2018-09-30T15:29:55.799Z,4.00
2018-09-30T15:32:24.100Z,3.80
2018-09-30T15:34:52.601Z,3.30
2018-09-30T15:37:20.971Z,4.20
2018-09-30T15:39:49.321Z,3.57
2018-09-30T15:42:18.196Z,4.23
2018-09-30T15:44:47.579Z,4.90
2018-09-30T15:47:15.977Z,4.27
2018-09-30T15:49:44.289Z,3.80
2018-09-30T15:52:13.233Z,3.80
2018-09-30T15:54:41.818Z,3.80
2018-09-30T15:57:10.146Z,4.17
2018-09-30T15:59:38.491Z,3.83
2018-09-30T16:02:07.750Z,4.37
2018-09-30T16:04:36.254Z,4.30
2018-09-30T16:07:04.636Z,4.70
2018-09-30T16:09:32.924Z,4.33
2018-09-30T16:12:02.252Z,4.50
2018-09-30T16:14:30.560Z,3.80
2018-09-30T16:16:58.968Z,3.87
2018-09-30T16:19:27.269Z,4.27
2018-09-30T16:21:55.603Z,3.53
2018-09-30T16:24:24.097Z,3.77
2018-09-30T16:26:52.504Z,4.43
2018-09-30T16:29:20.896Z,4.43
2018-09-30T16:31:49.642Z,4.30
2018-09-30T16:34:17.967Z,4.97
2018-09-30T16:36:46.313Z,4.37
2018-09-30T16:39:14.588Z,3.80
2018-09-30T16:41:42.862Z,4.40
2018-09-30T16:44:11.211Z,4.67
2018-09-30T16:46:43.054Z,4.73
2018-09-30T16:49:11.478Z,5.17
2018-09-30T16:51:39.881Z,4.07
2018-09-30T16:54:08.248Z,4.30
2018-09-30T16:56:36.635Z,4.03
2018-09-30T16:59:05.081Z,4.17
2018-09-30T17:01:33.501Z,4.10
2018-09-30T17:04:01.923Z,4.37
2018-09-30T17:06:30.380Z,3.97
2018-09-30T17:08:58.692Z,4.77
2018-09-30T17:11:26.982Z,3.97
2018-09-30T17:13:55.295Z,4.30
2018-09-30T17:16:23.590Z,4.33
2018-09-30T17:18:51.903Z,4.10
2018-09-30T17:21:20.242Z,3.90
2018-09-30T17:23:49.625Z,4.33
2018-09-30T17:26:18.099Z,4.30
2018-09-30T17:28:46.405Z,4.20
2018-09-30T17:31:14.749Z,4.83
2018-09-30T17:33:43.050Z,3.97
2018-09-30T17:36:11.336Z,4.97
2018-09-30T17:38:39.686Z,4.87
2018-09-30T17:41:08.185Z,4.53
2018-09-30T17:43:36.513Z,5.03
2018-09-30T17:46:04.829Z,4.50
2018-09-30T17:48:33.178Z,4.97
2018-09-30T17:51:01.679Z,5.67
2018-09-30T17:53:29.896Z,4.70
2018-09-30T17:55:58.112Z,5.23
2018-09-30T17:58:26.425Z,5.27
2018-09-30T18:00:55.084Z,6.30
2018-09-30T18:03:23.490Z,5.90
2018-09-30T18:05:51.929Z,5.80
2018-09-30T18:08:20.305Z,6.33
2018-09-30T18:10:48.646Z,5.63
2018-09-30T18:13:17.020Z,6.20
2018-09-30T18:15:45.390Z,6.10
2018-09-30T18:18:13.877Z,7.00
2018-09-30T18:20:42.221Z,6.37
2018-09-30T18:23:10.462Z,6.10
2018-09-30T18:25:39.792Z,6.93
2018-09-30T18:28:08.321Z,6.27
2018-09-30T18:30:36.688Z,6.97
2018-09-30T18:33:04.977Z,8.10
2018-09-30T18:35:33.303Z,7.73
2018-09-30T18:38:02.496Z,7.80
2018-09-30T18:40:37.532Z,7.00
2018-09-30T18:43:06.286Z,6.80
2018-09-30T18:45:34.574Z,7.87
2018-09-30T18:48:02.856Z,6.93
2018-09-30T18:53:22.258Z,6.67
2018-09-30T18:55:50.812Z,6.63
2018-09-30T18:58:19.654Z,9.80
2018-09-30T19:00:48.058Z,6.40
2018-09-30T19:03:16.434Z,10.30
2018-09-30T19:05:45.091Z,7.50
2018-09-30T19:08:13.533Z,7.80
2018-09-30T19:10:42.570Z,7.03
2018-09-30T19:13:11.149Z,7.00
2018-09-30T19:15:39.536Z,6.60
2018-09-30T19:18:07.941Z,5.60
2018-09-30T19:20:36.417Z,6.73
2018-09-30T19:23:04.763Z,7.17
2018-09-30T19:25:33.083Z,7.20
2018-09-30T19:28:01.517Z,7.67
2018-09-30T19:30:29.872Z,8.30
2018-09-30T19:32:58.242Z,8.53
2018-09-30T19:35:26.639Z,7.53
2018-09-30T19:37:54.938Z,8.70
2018-09-30T19:40:23.298Z,8.10
2018-09-30T19:42:51.888Z,9.00
2018-09-30T19:45:20.455Z,9.10
2018-09-30T19:47:48.887Z,9.20
2018-09-30T19:50:17.430Z,8.67
2018-09-30T19:52:45.947Z,9.43
2018-09-30T19:55:14.402Z,9.10
2018-09-30T19:57:42.899Z,9.13
2018-09-30T20:00:11.373Z,9.53
2018-09-30T20:02:39.685Z,9.67
2018-09-30T20:05:08.069Z,9.10
2018-09-30T20:07:36.446Z,9.70
2018-09-30T20:10:04.905Z,9.33
2018-09-30T20:12:33.256Z,9.40
2018-09-30T20:15:01.670Z,10.10
2018-09-30T20:17:30.099Z,8.90
2018-09-30T20:19:58.642Z,8.60
2018-09-30T20:22:26.992Z,8.93
2018-09-30T20:24:55.358Z,10.27
2018-09-30T20:27:23.668Z,8.63
2018-09-30T20:29:52.313Z,8.33
2018-09-30T20:32:20.788Z,8.13
2018-09-30T20:34:49.337Z,7.00
2018-09-30T20:37:17.768Z,8.40
2018-09-30T20:39:46.174Z,8.80
2018-09-30T20:42:14.536Z,7.73
2018-09-30T20:44:42.812Z,8.20
2018-09-30T20:47:11.181Z,8.60
2018-09-30T20:49:39.439Z,7.33
2018-09-30T20:52:07.784Z,7.70
2018-09-30T20:54:36.073Z,8.00
2018-09-30T20:57:04.441Z,9.37
2018-09-30T20:59:32.752Z,8.70
2018-09-30T21:02:01.764Z,8.63
2018-09-30T21:04:30.043Z,8.40
2018-09-30T21:06:58.343Z,8.60
2018-09-30T21:09:26.637Z,7.63
2018-09-30T21:11:54.995Z,8.20
2018-09-30T21:14:23.352Z,6.63
2018-09-30T21:16:51.717Z,7.77
2018-09-30T21:19:19.949Z,7.10
2018-09-30T21:21:48.233Z,7.10
2018-09-30T21:24:16.531Z,7.10
2018-09-30T21:26:44.842Z,7.30
2018-09-30T21:29:13.763Z,6.87
2018-09-30T21:31:42.042Z,7.20
2018-09-30T21:34:10.366Z,7.37
2018-09-30T21:36:38.647Z,6.63
2018-09-30T21:39:09.432Z,7.40
2018-09-30T21:41:37.718Z,6.37
2018-09-30T21:44:06.037Z,7.37
2018-09-30T21:46:34.370Z,7.33
2018-09-30T21:49:02.663Z,7.53
2018-09-30T21:51:30.936Z,7.90
2018-09-30T21:53:59.250Z,8.10
2018-09-30T21:56:27.555Z,7.10
2018-09-30T21:58:56.256Z,7.63
2018-09-30T22:01:24.636Z,7.87
2018-09-30T22:03:52.912Z,7.83
2018-09-30T22:06:21.236Z,7.90
2018-09-30T22:08:49.511Z,8.30
2018-09-30T22:11:17.825Z,7.60
2018-09-30T22:13:46.164Z,8.23
2018-09-30T22:16:14.479Z,7.10
2018-09-30T22:18:42.857Z,8.60
2018-09-30T22:21:11.171Z,8.17
2018-09-30T22:23:39.467Z,7.80
2018-09-30T22:26:07.780Z,7.97
2018-09-30T22:28:36.277Z,7.40
2018-09-30T22:31:04.598Z,7.95
2018-09-30T22:33:32.908Z,6.70
2018-09-30T22:36:01.226Z,7.42
2018-09-30T22:38:29.921Z,7.03
2018-09-30T22:40:58.250Z,6.75
2018-09-30T22:43:26.522Z,6.80
2018-09-30T22:45:54.822Z,7.33
2018-09-30T22:48:23.111Z,6.90
2018-09-30T22:50:51.431Z,6.53
2018-09-30T22:53:19.733Z,6.23
2018-09-30T22:55:48.079Z,7.10
2018-09-30T22:58:16.354Z,5.90
2018-09-30T23:00:44.621Z,7.10
2018-09-30T23:03:12.919Z,6.27
2018-09-30T23:05:41.222Z,6.40
2018-09-30T23:08:09.529Z,6.40
2018-09-30T23:10:37.814Z,7.83
2018-09-30T23:13:06.419Z,6.30
2018-09-30T23:15:34.753Z,6.60
2018-09-30T23:18:03.152Z,6.83
2018-09-30T23:20:31.488Z,6.37
2018-09-30T23:22:59.863Z,6.00
2018-09-30T23:25:28.181Z,8.30
2018-09-30T23:27:56.458Z,6.73
2018-09-30T23:30:24.748Z,6.00
2018-09-30T23:32:53.108Z,5.87
2018-09-30T23:35:21.442Z,7.20
2018-09-30T23:37:49.773Z,5.63
2018-09-30T23:40:18.123Z,6.13
2018-09-30T23:42:46.433Z,5.80
2018-09-30T23:45:14.827Z,6.10
2018-09-30T23:47:43.175Z,5.70
2018-09-30T23:50:11.467Z,6.63
2018-09-30T23:52:39.804Z,6.07
2018-09-30T23:55:08.121Z,6.37
2018-09-30T23:57:36.489Z,5.60
